sensor_id;sensor_type;location;lat;lon;timestamp;temperature;humidity
35491;DHT22;21605;52.068;20.806;2023-10-09T00:00:26;4.80;84.50
35491;DHT22;21605;52.068;20.806;2023-10-09T00:03:17;4.70;84.70
35491;DHT22;21605;52.068;20.806;2023-10-09T00:05:46;4.70;85.50
35491;DHT22;21605;52.068;20.806;2023-10-09T00:08:13;4.60;85.50
35491;DHT22;21605;52.068;20.806;2023-10-09T00:10:43;4.60;85.70
35491;DHT22;21605;52.068;20.806;2023-10-09T00:13:19;4.60;85.70
35491;DHT22;21605;52.068;20.806;2023-10-09T00:15:48;4.60;86.20
35491;DHT22;21605;52.068;20.806;2023-10-09T00:18:19;4.60;86.40
35491;DHT22;21605;52.068;20.806;2023-10-09T00:20:54;4.60;86.90
35491;DHT22;21605;52.068;20.806;2023-10-09T00:23:20;4.60;86.60
35491;DHT22;21605;52.068;20.806;2023-10-09T00:25:49;4.50;86.70
35491;DHT22;21605;52.068;20.806;2023-10-09T00:28:30;4.60;86.30
35491;DHT22;21605;52.068;20.806;2023-10-09T00:30:56;4.50;86.30
35491;DHT22;21605;52.068;20.806;2023-10-09T00:33:21;4.50;86.80
35491;DHT22;21605;52.068;20.806;2023-10-09T00:35:48;4.50;86.90
35491;DHT22;21605;52.068;20.806;2023-10-09T00:38:20;4.50;87.60
35491;DHT22;21605;52.068;20.806;2023-10-09T00:40:54;4.50;87.60
35491;DHT22;21605;52.068;20.806;2023-10-09T00:43:29;4.50;87.60
35491;DHT22;21605;52.068;20.806;2023-10-09T00:45:58;4.40;87.60
35491;DHT22;21605;52.068;20.806;2023-10-09T00:48:28;4.40;87.90
35491;DHT22;21605;52.068;20.806;2023-10-09T00:51:10;4.40;88.10
35491;DHT22;21605;52.068;20.806;2023-10-09T00:53:47;4.40;87.80
35491;DHT22;21605;52.068;20.806;2023-10-09T00:56:18;4.30;88.70
35491;DHT22;21605;52.068;20.806;2023-10-09T00:59:04;4.30;88.50
35491;DHT22;21605;52.068;20.806;2023-10-09T01:01:35;4.40;87.70
35491;DHT22;21605;52.068;20.806;2023-10-09T01:04:04;4.30;87.60
35491;DHT22;21605;52.068;20.806;2023-10-09T01:06:45;4.30;88.10
35491;DHT22;21605;52.068;20.806;2023-10-09T01:09:13;4.30;89.00
35491;DHT22;21605;52.068;20.806;2023-10-09T01:11:45;4.30;89.00
35491;DHT22;21605;52.068;20.806;2023-10-09T01:14:15;4.30;89.70
35491;DHT22;21605;52.068;20.806;2023-10-09T01:16:50;4.20;89.60
35491;DHT22;21605;52.068;20.806;2023-10-09T01:19:19;4.20;89.60
35491;DHT22;21605;52.068;20.806;2023-10-09T01:21:56;4.20;88.90
35491;DHT22;21605;52.068;20.806;2023-10-09T01:24:29;4.20;88.60
35491;DHT22;21605;52.068;20.806;2023-10-09T01:26:57;4.20;89.00
35491;DHT22;21605;52.068;20.806;2023-10-09T01:29:24;4.20;89.60
35491;DHT22;21605;52.068;20.806;2023-10-09T01:31:56;4.20;90.00
35491;DHT22;21605;52.068;20.806;2023-10-09T01:34:23;4.20;89.80
35491;DHT22;21605;52.068;20.806;2023-10-09T01:36:55;4.20;89.50
35491;DHT22;21605;52.068;20.806;2023-10-09T01:39:25;4.20;89.80
35491;DHT22;21605;52.068;20.806;2023-10-09T01:42:18;4.20;90.20
35491;DHT22;21605;52.068;20.806;2023-10-09T01:44:57;4.10;90.00
35491;DHT22;21605;52.068;20.806;2023-10-09T01:47:53;4.20;90.30
35491;DHT22;21605;52.068;20.806;2023-10-09T01:50:22;4.10;90.40
35491;DHT22;21605;52.068;20.806;2023-10-09T01:52:56;4.10;90.50
35491;DHT22;21605;52.068;20.806;2023-10-09T01:55:22;4.10;90.40
35491;DHT22;21605;52.068;20.806;2023-10-09T01:58:02;4.20;90.20
35491;DHT22;21605;52.068;20.806;2023-10-09T02:00:32;4.20;90.30
35491;DHT22;21605;52.068;20.806;2023-10-09T02:03:23;4.20;90.70
35491;DHT22;21605;52.068;20.806;2023-10-09T02:05:52;4.20;90.80
35491;DHT22;21605;52.068;20.806;2023-10-09T02:08:52;4.10;90.80
35491;DHT22;21605;52.068;20.806;2023-10-09T02:11:18;4.20;90.60
35491;DHT22;21605;52.068;20.806;2023-10-09T02:14:02;4.20;90.60
35491;DHT22;21605;52.068;20.806;2023-10-09T02:16:30;4.20;91.00
35491;DHT22;21605;52.068;20.806;2023-10-09T02:19:16;4.20;91.10
35491;DHT22;21605;52.068;20.806;2023-10-09T02:22:02;4.20;90.90
35491;DHT22;21605;52.068;20.806;2023-10-09T02:24:39;4.20;90.90
35491;DHT22;21605;52.068;20.806;2023-10-09T02:27:24;4.20;91.00
35491;DHT22;21605;52.068;20.806;2023-10-09T02:30:12;4.30;91.20
35491;DHT22;21605;52.068;20.806;2023-10-09T02:32:47;4.30;91.20
35491;DHT22;21605;52.068;20.806;2023-10-09T02:35:18;4.30;91.10
35491;DHT22;21605;52.068;20.806;2023-10-09T02:38:02;4.30;91.20
35491;DHT22;21605;52.068;20.806;2023-10-09T02:40:29;4.30;91.30
35491;DHT22;21605;52.068;20.806;2023-10-09T02:43:06;4.30;91.40
35491;DHT22;21605;52.068;20.806;2023-10-09T02:45:32;4.30;91.20
35491;DHT22;21605;52.068;20.806;2023-10-09T02:48:03;4.40;91.30
35491;DHT22;21605;52.068;20.806;2023-10-09T02:50:36;4.40;91.40
35491;DHT22;21605;52.068;20.806;2023-10-09T02:53:03;4.40;91.50
35491;DHT22;21605;52.068;20.806;2023-10-09T02:55:35;4.30;91.20
35491;DHT22;21605;52.068;20.806;2023-10-09T02:58:04;4.40;91.30
35491;DHT22;21605;52.068;20.806;2023-10-09T03:00:37;4.50;91.70
35491;DHT22;21605;52.068;20.806;2023-10-09T03:03:05;4.50;91.60
35491;DHT22;21605;52.068;20.806;2023-10-09T03:05:33;4.40;91.60
35491;DHT22;21605;52.068;20.806;2023-10-09T03:07:59;4.50;91.60
35491;DHT22;21605;52.068;20.806;2023-10-09T03:10:26;4.50;91.60
35491;DHT22;21605;52.068;20.806;2023-10-09T03:12:56;4.40;91.50
35491;DHT22;21605;52.068;20.806;2023-10-09T03:15:25;4.50;91.60
35491;DHT22;21605;52.068;20.806;2023-10-09T03:17:56;4.50;91.60
35491;DHT22;21605;52.068;20.806;2023-10-09T03:20:21;4.50;91.90
35491;DHT22;21605;52.068;20.806;2023-10-09T03:22:52;4.60;92.00
35491;DHT22;21605;52.068;20.806;2023-10-09T03:25:19;4.50;91.90
35491;DHT22;21605;52.068;20.806;2023-10-09T03:27:58;4.60;92.00
35491;DHT22;21605;52.068;20.806;2023-10-09T03:30:24;4.60;92.10
35491;DHT22;21605;52.068;20.806;2023-10-09T03:32:53;4.60;92.00
35491;DHT22;21605;52.068;20.806;2023-10-09T03:35:22;4.60;92.10
35491;DHT22;21605;52.068;20.806;2023-10-09T03:37:57;4.60;92.00
35491;DHT22;21605;52.068;20.806;2023-10-09T03:40:26;4.60;91.90
35491;DHT22;21605;52.068;20.806;2023-10-09T03:42:58;4.60;92.20
35491;DHT22;21605;52.068;20.806;2023-10-09T03:45:26;4.70;91.80
35491;DHT22;21605;52.068;20.806;2023-10-09T03:47:58;4.70;91.70
35491;DHT22;21605;52.068;20.806;2023-10-09T03:50:34;4.70;91.90
35491;DHT22;21605;52.068;20.806;2023-10-09T03:53:04;4.70;91.90
35491;DHT22;21605;52.068;20.806;2023-10-09T03:55:33;4.70;92.00
35491;DHT22;21605;52.068;20.806;2023-10-09T03:57:59;4.80;91.90
35491;DHT22;21605;52.068;20.806;2023-10-09T04:00:28;4.80;92.00
35491;DHT22;21605;52.068;20.806;2023-10-09T04:02:59;4.80;92.20
35491;DHT22;21605;52.068;20.806;2023-10-09T04:05:25;4.80;92.20
35491;DHT22;21605;52.068;20.806;2023-10-09T04:07:57;4.80;92.20
35491;DHT22;21605;52.068;20.806;2023-10-09T04:10:37;4.80;92.10
35491;DHT22;21605;52.068;20.806;2023-10-09T04:13:23;4.80;92.40
35491;DHT22;21605;52.068;20.806;2023-10-09T04:16:02;4.80;92.30
35491;DHT22;21605;52.068;20.806;2023-10-09T04:19:01;4.80;92.50
35491;DHT22;21605;52.068;20.806;2023-10-09T04:21:32;4.80;92.40
35491;DHT22;21605;52.068;20.806;2023-10-09T04:24:06;4.90;92.00
35491;DHT22;21605;52.068;20.806;2023-10-09T04:27:00;4.80;92.50
35491;DHT22;21605;52.068;20.806;2023-10-09T04:29:28;4.90;92.40
35491;DHT22;21605;52.068;20.806;2023-10-09T04:31:59;4.90;92.20
35491;DHT22;21605;52.068;20.806;2023-10-09T04:34:26;4.90;92.50
35491;DHT22;21605;52.068;20.806;2023-10-09T04:37:00;4.90;92.40
35491;DHT22;21605;52.068;20.806;2023-10-09T04:39:27;4.90;92.40
35491;DHT22;21605;52.068;20.806;2023-10-09T04:41:57;5.00;92.40
35491;DHT22;21605;52.068;20.806;2023-10-09T04:44:45;5.00;92.40
35491;DHT22;21605;52.068;20.806;2023-10-09T04:47:29;4.90;92.40
35491;DHT22;21605;52.068;20.806;2023-10-09T04:50:15;5.00;92.50
35491;DHT22;21605;52.068;20.806;2023-10-09T04:52:43;5.00;92.50
35491;DHT22;21605;52.068;20.806;2023-10-09T04:55:09;5.00;92.60
35491;DHT22;21605;52.068;20.806;2023-10-09T04:57:38;5.00;92.60
35491;DHT22;21605;52.068;20.806;2023-10-09T05:00:08;5.10;92.60
35491;DHT22;21605;52.068;20.806;2023-10-09T05:03:03;5.10;92.70
35491;DHT22;21605;52.068;20.806;2023-10-09T05:05:39;5.10;92.80
35491;DHT22;21605;52.068;20.806;2023-10-09T05:08:08;5.10;92.70
35491;DHT22;21605;52.068;20.806;2023-10-09T05:10:44;5.10;92.70
35491;DHT22;21605;52.068;20.806;2023-10-09T05:13:34;5.20;92.80
35491;DHT22;21605;52.068;20.806;2023-10-09T05:18:58;5.10;92.90
35491;DHT22;21605;52.068;20.806;2023-10-09T05:21:35;5.20;92.90
35491;DHT22;21605;52.068;20.806;2023-10-09T05:24:03;5.20;93.00
35491;DHT22;21605;52.068;20.806;2023-10-09T05:26:36;5.20;93.10
35491;DHT22;21605;52.068;20.806;2023-10-09T05:29:18;5.20;93.00
35491;DHT22;21605;52.068;20.806;2023-10-09T05:32:03;5.20;92.90
35491;DHT22;21605;52.068;20.806;2023-10-09T05:34:39;5.20;93.10
35491;DHT22;21605;52.068;20.806;2023-10-09T05:37:28;5.20;93.00
35491;DHT22;21605;52.068;20.806;2023-10-09T05:40:01;5.30;93.10
35491;DHT22;21605;52.068;20.806;2023-10-09T05:42:30;5.20;93.10
35491;DHT22;21605;52.068;20.806;2023-10-09T05:45:13;5.20;93.20
35491;DHT22;21605;52.068;20.806;2023-10-09T05:47:50;5.30;93.20
35491;DHT22;21605;52.068;20.806;2023-10-09T05:50:20;5.30;93.20
35491;DHT22;21605;52.068;20.806;2023-10-09T05:53:01;5.30;93.20
35491;DHT22;21605;52.068;20.806;2023-10-09T05:55:27;5.40;93.80
35491;DHT22;21605;52.068;20.806;2023-10-09T05:58:12;5.40;93.50
35491;DHT22;21605;52.068;20.806;2023-10-09T06:01:05;5.40;93.90
35491;DHT22;21605;52.068;20.806;2023-10-09T06:03:49;5.40;93.80
35491;DHT22;21605;52.068;20.806;2023-10-09T06:06:41;5.50;93.80
35491;DHT22;21605;52.068;20.806;2023-10-09T06:09:29;5.50;93.80
35491;DHT22;21605;52.068;20.806;2023-10-09T06:12:15;5.50;93.80
35491;DHT22;21605;52.068;20.806;2023-10-09T06:14:50;5.50;93.90
35491;DHT22;21605;52.068;20.806;2023-10-09T06:17:35;5.50;94.00
35491;DHT22;21605;52.068;20.806;2023-10-09T06:20:09;5.40;94.10
35491;DHT22;21605;52.068;20.806;2023-10-09T06:23:01;5.60;94.10
35491;DHT22;21605;52.068;20.806;2023-10-09T06:25:42;5.60;94.10
35491;DHT22;21605;52.068;20.806;2023-10-09T06:28:17;5.60;94.30
35491;DHT22;21605;52.068;20.806;2023-10-09T06:30:44;5.70;94.50
35491;DHT22;21605;52.068;20.806;2023-10-09T06:33:13;5.70;94.40
35491;DHT22;21605;52.068;20.806;2023-10-09T06:35:47;5.80;94.50
35491;DHT22;21605;52.068;20.806;2023-10-09T06:38:19;5.80;94.60
35491;DHT22;21605;52.068;20.806;2023-10-09T06:40:50;5.80;94.60
35491;DHT22;21605;52.068;20.806;2023-10-09T06:43:31;5.90;94.60
35491;DHT22;21605;52.068;20.806;2023-10-09T06:46:02;5.90;94.80
35491;DHT22;21605;52.068;20.806;2023-10-09T06:48:46;6.00;94.80
35491;DHT22;21605;52.068;20.806;2023-10-09T06:51:21;6.00;94.70
35491;DHT22;21605;52.068;20.806;2023-10-09T06:53:53;6.00;94.70
35491;DHT22;21605;52.068;20.806;2023-10-09T06:56:29;6.10;94.70
35491;DHT22;21605;52.068;20.806;2023-10-09T07:01:38;6.20;94.80
35491;DHT22;21605;52.068;20.806;2023-10-09T07:04:09;6.20;94.70
35491;DHT22;21605;52.068;20.806;2023-10-09T07:07:07;6.30;94.80
35491;DHT22;21605;52.068;20.806;2023-10-09T07:09:35;6.30;94.70
35491;DHT22;21605;52.068;20.806;2023-10-09T07:12:20;6.40;94.80
35491;DHT22;21605;52.068;20.806;2023-10-09T07:14:51;6.50;94.70
35491;DHT22;21605;52.068;20.806;2023-10-09T07:17:17;6.50;94.80
35491;DHT22;21605;52.068;20.806;2023-10-09T07:20:11;6.50;94.90
35491;DHT22;21605;52.068;20.806;2023-10-09T07:22:37;6.60;95.00
35491;DHT22;21605;52.068;20.806;2023-10-09T07:25:18;6.70;95.20
35491;DHT22;21605;52.068;20.806;2023-10-09T07:28:10;6.80;95.20
35491;DHT22;21605;52.068;20.806;2023-10-09T07:30:56;6.90;95.40
35491;DHT22;21605;52.068;20.806;2023-10-09T07:33:34;7.00;95.20
35491;DHT22;21605;52.068;20.806;2023-10-09T07:36:26;7.10;95.20
35491;DHT22;21605;52.068;20.806;2023-10-09T07:39:08;7.30;94.90
35491;DHT22;21605;52.068;20.806;2023-10-09T07:41:41;7.40;94.80
35491;DHT22;21605;52.068;20.806;2023-10-09T07:44:21;7.50;94.30
35491;DHT22;21605;52.068;20.806;2023-10-09T07:47:02;7.70;94.40
35491;DHT22;21605;52.068;20.806;2023-10-09T07:49:43;7.80;94.10
35491;DHT22;21605;52.068;20.806;2023-10-09T07:52:15;8.00;94.00
35491;DHT22;21605;52.068;20.806;2023-10-09T07:54:40;8.10;93.80
35491;DHT22;21605;52.068;20.806;2023-10-09T07:57:16;8.20;93.70
35491;DHT22;21605;52.068;20.806;2023-10-09T07:59:43;8.30;93.50
35491;DHT22;21605;52.068;20.806;2023-10-09T08:02:21;8.40;93.40
35491;DHT22;21605;52.068;20.806;2023-10-09T08:04:58;8.50;93.30
35491;DHT22;21605;52.068;20.806;2023-10-09T08:07:29;8.60;93.20
35491;DHT22;21605;52.068;20.806;2023-10-09T08:10:10;8.70;92.90
35491;DHT22;21605;52.068;20.806;2023-10-09T08:12:40;8.80;93.10
35491;DHT22;21605;52.068;20.806;2023-10-09T08:15:16;9.00;93.00
35491;DHT22;21605;52.068;20.806;2023-10-09T08:20:28;9.20;92.00
35491;DHT22;21605;52.068;20.806;2023-10-09T08:23:10;9.30;91.80
35491;DHT22;21605;52.068;20.806;2023-10-09T08:25:47;9.40;92.50
35491;DHT22;21605;52.068;20.806;2023-10-09T08:28:33;9.70;92.20
35491;DHT22;21605;52.068;20.806;2023-10-09T08:31:18;9.80;91.90
35491;DHT22;21605;52.068;20.806;2023-10-09T08:33:46;9.90;91.40
35491;DHT22;21605;52.068;20.806;2023-10-09T08:36:22;10.00;91.20
35491;DHT22;21605;52.068;20.806;2023-10-09T08:38:48;10.20;91.20
35491;DHT22;21605;52.068;20.806;2023-10-09T08:41:14;10.40;91.00
35491;DHT22;21605;52.068;20.806;2023-10-09T08:43:52;10.60;91.00
35491;DHT22;21605;52.068;20.806;2023-10-09T08:46:24;10.80;90.70
35491;DHT22;21605;52.068;20.806;2023-10-09T08:48:58;11.00;90.00
35491;DHT22;21605;52.068;20.806;2023-10-09T08:51:28;11.10;90.50
35491;DHT22;21605;52.068;20.806;2023-10-09T08:53:55;11.30;89.70
35491;DHT22;21605;52.068;20.806;2023-10-09T08:56:21;11.40;87.20
35491;DHT22;21605;52.068;20.806;2023-10-09T08:58:51;11.40;86.90
35491;DHT22;21605;52.068;20.806;2023-10-09T09:01:18;11.50;85.70
35491;DHT22;21605;52.068;20.806;2023-10-09T09:03:47;11.50;85.50
35491;DHT22;21605;52.068;20.806;2023-10-09T09:06:23;11.60;86.40
35491;DHT22;21605;52.068;20.806;2023-10-09T09:08:49;11.50;84.80
35491;DHT22;21605;52.068;20.806;2023-10-09T09:11:20;11.60;85.90
35491;DHT22;21605;52.068;20.806;2023-10-09T09:16:29;11.60;83.60
35491;DHT22;21605;52.068;20.806;2023-10-09T09:19:01;11.60;84.40
35491;DHT22;21605;52.068;20.806;2023-10-09T09:21:49;11.60;83.20
35491;DHT22;21605;52.068;20.806;2023-10-09T09:24:20;11.50;82.90
35491;DHT22;21605;52.068;20.806;2023-10-09T09:26:49;11.50;82.50
35491;DHT22;21605;52.068;20.806;2023-10-09T09:31:55;11.60;84.80
35491;DHT22;21605;52.068;20.806;2023-10-09T09:34:48;11.60;83.40
35491;DHT22;21605;52.068;20.806;2023-10-09T09:37:24;11.50;83.10
35491;DHT22;21605;52.068;20.806;2023-10-09T09:39:57;11.50;83.10
35491;DHT22;21605;52.068;20.806;2023-10-09T09:42:23;11.50;82.20
35491;DHT22;21605;52.068;20.806;2023-10-09T09:44:53;11.40;82.30
35491;DHT22;21605;52.068;20.806;2023-10-09T09:47:22;11.40;83.30
35491;DHT22;21605;52.068;20.806;2023-10-09T09:49:53;11.40;82.90
35491;DHT22;21605;52.068;20.806;2023-10-09T09:52:28;11.40;82.70
35491;DHT22;21605;52.068;20.806;2023-10-09T09:54:54;11.40;82.10
35491;DHT22;21605;52.068;20.806;2023-10-09T09:57:23;11.40;82.90
35491;DHT22;21605;52.068;20.806;2023-10-09T09:59:52;11.40;83.40
35491;DHT22;21605;52.068;20.806;2023-10-09T10:02:35;11.40;84.80
35491;DHT22;21605;52.068;20.806;2023-10-09T10:05:13;11.40;82.70
35491;DHT22;21605;52.068;20.806;2023-10-09T10:07:41;11.40;82.90
35491;DHT22;21605;52.068;20.806;2023-10-09T10:10:34;11.40;82.50
35491;DHT22;21605;52.068;20.806;2023-10-09T10:12:59;11.40;83.20
35491;DHT22;21605;52.068;20.806;2023-10-09T10:15:57;11.40;84.00
35491;DHT22;21605;52.068;20.806;2023-10-09T10:18:23;11.40;82.80
35491;DHT22;21605;52.068;20.806;2023-10-09T10:21:22;11.40;83.40
35491;DHT22;21605;52.068;20.806;2023-10-09T10:23:57;11.40;83.40
35491;DHT22;21605;52.068;20.806;2023-10-09T10:26:43;11.20;82.80
35491;DHT22;21605;52.068;20.806;2023-10-09T10:29:20;11.20;83.90
35491;DHT22;21605;52.068;20.806;2023-10-09T10:34:20;11.30;84.60
35491;DHT22;21605;52.068;20.806;2023-10-09T10:36:53;11.20;83.70
35491;DHT22;21605;52.068;20.806;2023-10-09T10:39:25;11.20;84.10
35491;DHT22;21605;52.068;20.806;2023-10-09T10:42:15;11.10;84.10
35491;DHT22;21605;52.068;20.806;2023-10-09T10:45:04;11.10;85.00
35491;DHT22;21605;52.068;20.806;2023-10-09T10:47:50;11.10;85.10
35491;DHT22;21605;52.068;20.806;2023-10-09T10:50:17;11.10;85.20
35491;DHT22;21605;52.068;20.806;2023-10-09T10:53:15;11.10;85.10
35491;DHT22;21605;52.068;20.806;2023-10-09T10:56:02;11.10;85.50
35491;DHT22;21605;52.068;20.806;2023-10-09T10:58:41;11.10;85.50
35491;DHT22;21605;52.068;20.806;2023-10-09T11:01:19;11.10;85.50
35491;DHT22;21605;52.068;20.806;2023-10-09T11:03:50;11.10;85.70
35491;DHT22;21605;52.068;20.806;2023-10-09T11:06:29;11.10;85.70
35491;DHT22;21605;52.068;20.806;2023-10-09T11:09:09;11.10;85.80
35491;DHT22;21605;52.068;20.806;2023-10-09T11:11:47;11.10;85.90
35491;DHT22;21605;52.068;20.806;2023-10-09T11:14:18;11.10;86.40
35491;DHT22;21605;52.068;20.806;2023-10-09T11:16:51;11.10;86.50
35491;DHT22;21605;52.068;20.806;2023-10-09T11:19:23;11.10;86.40
35491;DHT22;21605;52.068;20.806;2023-10-09T11:21:58;11.10;86.80
35491;DHT22;21605;52.068;20.806;2023-10-09T11:24:33;11.10;87.00
35491;DHT22;21605;52.068;20.806;2023-10-09T11:27:04;11.10;87.00
35491;DHT22;21605;52.068;20.806;2023-10-09T11:29:51;11.10;87.20
35491;DHT22;21605;52.068;20.806;2023-10-09T11:32:19;11.10;87.20
35491;DHT22;21605;52.068;20.806;2023-10-09T11:34:49;11.10;87.50
35491;DHT22;21605;52.068;20.806;2023-10-09T11:37:21;11.10;87.50
35491;DHT22;21605;52.068;20.806;2023-10-09T11:39:59;11.10;87.40
35491;DHT22;21605;52.068;20.806;2023-10-09T11:42:30;11.10;87.70
35491;DHT22;21605;52.068;20.806;2023-10-09T11:45:08;11.10;87.80
35491;DHT22;21605;52.068;20.806;2023-10-09T11:47:52;11.10;87.70
35491;DHT22;21605;52.068;20.806;2023-10-09T11:50:43;11.10;87.90
35491;DHT22;21605;52.068;20.806;2023-10-09T11:53:20;11.10;88.20
35491;DHT22;21605;52.068;20.806;2023-10-09T11:55:49;11.10;88.20
35491;DHT22;21605;52.068;20.806;2023-10-09T11:58:20;11.10;88.70
35491;DHT22;21605;52.068;20.806;2023-10-09T12:00:52;11.10;88.30
35491;DHT22;21605;52.068;20.806;2023-10-09T12:03:23;11.10;88.30
35491;DHT22;21605;52.068;20.806;2023-10-09T12:05:56;11.10;89.10
35491;DHT22;21605;52.068;20.806;2023-10-09T12:08:25;11.10;88.80
35491;DHT22;21605;52.068;20.806;2023-10-09T12:10:53;11.10;88.70
35491;DHT22;21605;52.068;20.806;2023-10-09T12:13:25;11.10;89.10
35491;DHT22;21605;52.068;20.806;2023-10-09T12:15:52;11.10;89.10
35491;DHT22;21605;52.068;20.806;2023-10-09T12:18:21;11.10;89.40
35491;DHT22;21605;52.068;20.806;2023-10-09T12:20:47;11.10;89.10
35491;DHT22;21605;52.068;20.806;2023-10-09T12:23:17;11.10;89.00
35491;DHT22;21605;52.068;20.806;2023-10-09T12:25:43;11.20;89.40
35491;DHT22;21605;52.068;20.806;2023-10-09T12:28:20;11.10;89.60
35491;DHT22;21605;52.068;20.806;2023-10-09T12:30:47;11.10;89.90
35491;DHT22;21605;52.068;20.806;2023-10-09T12:33:21;11.10;90.00
35491;DHT22;21605;52.068;20.806;2023-10-09T12:35:53;11.10;89.70
35491;DHT22;21605;52.068;20.806;2023-10-09T12:38:26;11.10;89.70
35491;DHT22;21605;52.068;20.806;2023-10-09T12:41:03;11.10;90.00
35491;DHT22;21605;52.068;20.806;2023-10-09T12:43:34;11.10;90.00
35491;DHT22;21605;52.068;20.806;2023-10-09T12:46:07;11.10;90.00
35491;DHT22;21605;52.068;20.806;2023-10-09T12:48:33;11.10;90.10
35491;DHT22;21605;52.068;20.806;2023-10-09T12:50:59;11.10;90.30
35491;DHT22;21605;52.068;20.806;2023-10-09T12:53:32;11.10;90.30
35491;DHT22;21605;52.068;20.806;2023-10-09T12:55:58;11.10;90.20
35491;DHT22;21605;52.068;20.806;2023-10-09T12:58:34;11.10;90.20
35491;DHT22;21605;52.068;20.806;2023-10-09T13:01:03;11.10;90.30
35491;DHT22;21605;52.068;20.806;2023-10-09T13:03:35;11.10;90.40
35491;DHT22;21605;52.068;20.806;2023-10-09T13:06:04;11.10;90.40
35491;DHT22;21605;52.068;20.806;2023-10-09T13:08:36;11.10;90.60
35491;DHT22;21605;52.068;20.806;2023-10-09T13:11:06;11.10;90.60
35491;DHT22;21605;52.068;20.806;2023-10-09T13:13:40;11.00;90.60
35491;DHT22;21605;52.068;20.806;2023-10-09T13:16:26;11.00;90.70
35491;DHT22;21605;52.068;20.806;2023-10-09T13:18:56;11.00;90.80
35491;DHT22;21605;52.068;20.806;2023-10-09T13:21:28;11.00;90.70
35491;DHT22;21605;52.068;20.806;2023-10-09T13:23:59;11.00;90.80
35491;DHT22;21605;52.068;20.806;2023-10-09T13:26:27;11.00;90.70
35491;DHT22;21605;52.068;20.806;2023-10-09T13:28:57;11.00;90.90
35491;DHT22;21605;52.068;20.806;2023-10-09T13:31:29;11.00;90.80
35491;DHT22;21605;52.068;20.806;2023-10-09T13:33:59;11.00;91.00
35491;DHT22;21605;52.068;20.806;2023-10-09T13:36:35;11.00;90.90
35491;DHT22;21605;52.068;20.806;2023-10-09T13:39:08;11.00;91.30
35491;DHT22;21605;52.068;20.806;2023-10-09T13:41:57;11.00;91.00
35491;DHT22;21605;52.068;20.806;2023-10-09T13:44:32;10.90;90.80
35491;DHT22;21605;52.068;20.806;2023-10-09T13:47:03;10.90;90.90
35491;DHT22;21605;52.068;20.806;2023-10-09T13:49:34;10.90;91.20
35491;DHT22;21605;52.068;20.806;2023-10-09T13:52:03;10.90;90.80
35491;DHT22;21605;52.068;20.806;2023-10-09T13:54:29;10.90;91.20
35491;DHT22;21605;52.068;20.806;2023-10-09T13:57:02;10.90;91.30
35491;DHT22;21605;52.068;20.806;2023-10-09T13:59:31;10.80;91.30
35491;DHT22;21605;52.068;20.806;2023-10-09T14:01:57;10.90;91.10
35491;DHT22;21605;52.068;20.806;2023-10-09T14:04:25;10.80;90.90
35491;DHT22;21605;52.068;20.806;2023-10-09T14:06:52;10.80;91.30
35491;DHT22;21605;52.068;20.806;2023-10-09T14:09:26;10.80;91.30
35491;DHT22;21605;52.068;20.806;2023-10-09T14:12:04;10.80;91.00
35491;DHT22;21605;52.068;20.806;2023-10-09T14:14:44;10.90;90.80
35491;DHT22;21605;52.068;20.806;2023-10-09T14:17:14;10.80;91.10
35491;DHT22;21605;52.068;20.806;2023-10-09T14:19:43;10.80;91.10
35491;DHT22;21605;52.068;20.806;2023-10-09T14:22:23;10.80;91.30
35491;DHT22;21605;52.068;20.806;2023-10-09T14:24:50;10.80;91.60
35491;DHT22;21605;52.068;20.806;2023-10-09T14:27:27;10.80;91.50
35491;DHT22;21605;52.068;20.806;2023-10-09T14:29:56;10.70;91.60
35491;DHT22;21605;52.068;20.806;2023-10-09T14:32:29;10.70;91.50
35491;DHT22;21605;52.068;20.806;2023-10-09T14:34:59;10.70;91.70
35491;DHT22;21605;52.068;20.806;2023-10-09T14:37:35;10.70;91.80
35491;DHT22;21605;52.068;20.806;2023-10-09T14:40:00;10.70;91.70
35491;DHT22;21605;52.068;20.806;2023-10-09T14:42:27;10.70;91.80
35491;DHT22;21605;52.068;20.806;2023-10-09T14:44:54;10.70;91.90
35491;DHT22;21605;52.068;20.806;2023-10-09T14:47:30;10.70;92.20
35491;DHT22;21605;52.068;20.806;2023-10-09T14:49:56;10.70;92.30
35491;DHT22;21605;52.068;20.806;2023-10-09T14:52:26;10.70;92.40
35491;DHT22;21605;52.068;20.806;2023-10-09T14:54:53;10.70;92.30
35491;DHT22;21605;52.068;20.806;2023-10-09T14:57:18;10.70;92.60
35491;DHT22;21605;52.068;20.806;2023-10-09T14:59:44;10.60;92.40
35491;DHT22;21605;52.068;20.806;2023-10-09T15:02:10;10.60;92.50
35491;DHT22;21605;52.068;20.806;2023-10-09T15:04:37;10.60;92.40
35491;DHT22;21605;52.068;20.806;2023-10-09T15:07:04;10.60;92.40
35491;DHT22;21605;52.068;20.806;2023-10-09T15:09:35;10.60;92.40
35491;DHT22;21605;52.068;20.806;2023-10-09T15:12:02;10.60;92.50
35491;DHT22;21605;52.068;20.806;2023-10-09T15:14:29;10.60;92.60
35491;DHT22;21605;52.068;20.806;2023-10-09T15:16:55;10.60;92.60
35491;DHT22;21605;52.068;20.806;2023-10-09T15:19:30;10.50;92.60
35491;DHT22;21605;52.068;20.806;2023-10-09T15:21:57;10.50;92.50
35491;DHT22;21605;52.068;20.806;2023-10-09T15:24:28;10.50;92.60
35491;DHT22;21605;52.068;20.806;2023-10-09T15:26:55;10.40;92.60
35491;DHT22;21605;52.068;20.806;2023-10-09T15:29:28;10.40;92.70
35491;DHT22;21605;52.068;20.806;2023-10-09T15:32:01;10.40;92.60
35491;DHT22;21605;52.068;20.806;2023-10-09T15:34:39;10.30;92.80
35491;DHT22;21605;52.068;20.806;2023-10-09T15:37:06;10.30;92.80
35491;DHT22;21605;52.068;20.806;2023-10-09T15:39:36;10.20;92.80
35491;DHT22;21605;52.068;20.806;2023-10-09T15:42:02;10.20;93.00
35491;DHT22;21605;52.068;20.806;2023-10-09T15:44:37;10.20;93.10
35491;DHT22;21605;52.068;20.806;2023-10-09T15:47:03;10.10;93.00
35491;DHT22;21605;52.068;20.806;2023-10-09T15:49:33;10.10;93.10
35491;DHT22;21605;52.068;20.806;2023-10-09T15:52:00;10.00;93.20
35491;DHT22;21605;52.068;20.806;2023-10-09T15:54:27;9.90;93.40
35491;DHT22;21605;52.068;20.806;2023-10-09T15:56:54;9.90;93.50
35491;DHT22;21605;52.068;20.806;2023-10-09T15:59:35;9.80;93.70
35491;DHT22;21605;52.068;20.806;2023-10-09T16:02:01;9.70;93.70
35491;DHT22;21605;52.068;20.806;2023-10-09T16:04:29;9.70;93.60
35491;DHT22;21605;52.068;20.806;2023-10-09T16:07:00;9.70;93.70
35491;DHT22;21605;52.068;20.806;2023-10-09T16:09:35;9.60;93.70
35491;DHT22;21605;52.068;20.806;2023-10-09T16:12:03;9.60;93.90
35491;DHT22;21605;52.068;20.806;2023-10-09T16:14:33;9.50;94.00
35491;DHT22;21605;52.068;20.806;2023-10-09T16:17:01;9.50;94.00
35491;DHT22;21605;52.068;20.806;2023-10-09T16:19:36;9.50;94.10
35491;DHT22;21605;52.068;20.806;2023-10-09T16:22:02;9.40;94.10